createdAt,value
2022-11-05T00:00:37.648Z,-7.01
2022-11-05T00:01:37.705Z,-7.01
2022-11-05T00:02:37.667Z,-7.03
2022-11-05T00:03:37.717Z,-7.05
2022-11-05T00:04:37.622Z,-7.08
2022-11-05T00:05:37.613Z,-7.09
2022-11-05T00:06:37.632Z,-7.10
2022-11-05T00:07:42.549Z,-7.12
2022-11-05T00:08:42.604Z,-7.12
2022-11-05T00:09:42.616Z,-7.12
2022-11-05T00:10:42.601Z,-7.16
2022-11-05T00:11:42.580Z,-7.16
2022-11-05T00:12:42.625Z,-7.16
2022-11-05T00:13:42.567Z,-7.16
2022-11-05T00:14:42.583Z,-7.18
2022-11-05T00:15:42.551Z,-7.22
2022-11-05T00:16:42.558Z,-7.22
2022-11-05T00:17:42.529Z,-7.23
2022-11-05T00:18:42.529Z,-7.27
2022-11-05T00:19:42.493Z,-7.30
2022-11-05T00:20:42.504Z,-7.32
2022-11-05T00:21:42.502Z,-7.32
2022-11-05T00:22:42.502Z,-7.34
2022-11-05T00:23:42.489Z,-7.38
2022-11-05T00:24:42.491Z,-7.39
2022-11-05T00:25:42.469Z,-7.40
2022-11-05T00:26:42.479Z,-7.44
2022-11-05T00:27:42.492Z,-7.40
2022-11-05T00:28:42.477Z,-7.41
2022-11-05T00:29:42.456Z,-7.41
2022-11-05T00:30:42.477Z,-7.40
2022-11-05T00:31:42.440Z,-7.42
2022-11-05T00:32:42.451Z,-7.41
2022-11-05T00:33:42.452Z,-7.44
2022-11-05T00:34:42.496Z,-7.44
2022-11-05T00:35:42.423Z,-7.45
2022-11-05T00:36:42.463Z,-7.45
2022-11-05T00:37:47.152Z,-7.46
2022-11-05T00:38:47.334Z,-7.46
2022-11-05T00:39:47.383Z,-7.48
2022-11-05T00:40:47.338Z,-7.50
2022-11-05T00:41:47.367Z,-7.50
2022-11-05T00:42:47.315Z,-7.52
2022-11-05T00:43:47.324Z,-7.56
2022-11-05T00:44:47.335Z,-7.59
2022-11-05T00:45:47.311Z,-7.61
2022-11-05T00:46:47.294Z,-7.66
2022-11-05T00:47:47.301Z,-7.69
2022-11-05T00:48:47.283Z,-7.70
2022-11-05T00:49:47.306Z,-7.71
2022-11-05T00:50:47.285Z,-7.74
2022-11-05T00:51:52.206Z,-7.75
2022-11-05T00:52:52.294Z,-7.76
2022-11-05T00:53:52.261Z,-7.76
2022-11-05T00:54:52.288Z,-7.76
2022-11-05T00:55:52.329Z,-7.77
2022-11-05T00:56:52.242Z,-7.78
2022-11-05T00:57:52.234Z,-7.77
2022-11-05T00:58:52.680Z,-7.77
2022-11-05T00:59:52.198Z,-7.77
2022-11-05T01:00:52.206Z,-7.78
2022-11-05T01:01:52.318Z,-7.78
2022-11-05T01:02:52.462Z,-7.79
2022-11-05T01:03:52.209Z,-7.79
2022-11-05T01:04:52.145Z,-7.80
2022-11-05T01:05:52.136Z,-7.80
2022-11-05T01:06:52.129Z,-7.80
2022-11-05T01:07:52.104Z,-7.82
2022-11-05T01:08:52.099Z,-7.81
2022-11-05T01:09:52.082Z,-7.84
2022-11-05T01:10:52.081Z,-7.84
2022-11-05T01:11:52.059Z,-7.85
2022-11-05T01:12:52.043Z,-7.85
2022-11-05T01:13:52.016Z,-7.86
2022-11-05T01:14:52.019Z,-7.85
2022-11-05T01:15:51.967Z,-7.83
2022-11-05T01:16:51.985Z,-7.85
2022-11-05T01:17:51.924Z,-7.86
2022-11-05T01:18:51.932Z,-7.86
2022-11-05T01:19:51.916Z,-7.86
2022-11-05T01:20:51.901Z,-7.86
2022-11-05T01:21:51.956Z,-7.89
2022-11-05T01:22:51.853Z,-7.89
2022-11-05T01:25:45.746Z,-7.89
2022-11-05T01:26:45.792Z,-7.90
2022-11-05T01:27:45.745Z,-7.91
2022-11-05T01:28:45.800Z,-7.92
2022-11-05T01:29:45.731Z,-7.91
2022-11-05T01:30:45.708Z,-7.92
2022-11-05T01:31:45.717Z,-7.91
2022-11-05T01:32:45.675Z,-7.92
2022-11-05T01:33:45.648Z,-7.93
2022-11-05T01:34:45.657Z,-7.94
2022-11-05T01:35:45.627Z,-7.97
2022-11-05T01:36:59.364Z,-7.96
2022-11-05T01:37:45.617Z,-7.97
2022-11-05T01:38:45.598Z,-7.96
2022-11-05T01:39:45.567Z,-7.97
2022-11-05T01:40:45.569Z,-7.97
2022-11-05T01:41:45.521Z,-7.97
2022-11-05T01:42:45.549Z,-7.99
2022-11-05T01:43:45.470Z,-7.98
2022-11-05T01:44:45.479Z,-8.00
2022-11-05T01:45:45.444Z,-7.99
2022-11-05T01:46:45.459Z,-7.99
2022-11-05T01:47:45.444Z,-7.99
2022-11-05T01:48:45.437Z,-8.00
2022-11-05T01:49:45.412Z,-8.00
2022-11-05T01:50:45.393Z,-8.00
2022-11-05T01:51:45.358Z,-8.00
2022-11-05T01:52:45.362Z,-7.99
2022-11-05T01:53:45.311Z,-8.01
2022-11-05T01:54:45.778Z,-8.01
2022-11-05T01:55:45.296Z,-8.03
2022-11-05T01:56:45.301Z,-8.05
2022-11-05T01:57:45.275Z,-8.07
2022-11-05T01:58:45.304Z,-8.07
2022-11-05T01:59:45.241Z,-8.08
2022-11-05T02:00:50.196Z,-8.09
2022-11-05T02:01:55.220Z,-8.11
2022-11-05T02:02:55.417Z,-8.10
2022-11-05T02:03:55.176Z,-8.10
2022-11-05T02:04:55.171Z,-8.10
2022-11-05T02:05:55.164Z,-8.08
2022-11-05T02:06:55.149Z,-8.07
2022-11-05T02:07:55.129Z,-8.08
2022-11-05T02:08:55.132Z,-8.08
2022-11-05T02:09:55.076Z,-8.07
2022-11-05T02:10:55.079Z,-8.08
2022-11-05T02:11:55.069Z,-8.09
2022-11-05T02:12:55.057Z,-8.10
2022-11-05T02:13:55.040Z,-8.10
2022-11-05T02:14:55.016Z,-8.12
2022-11-05T02:15:55.002Z,-8.13
2022-11-05T02:16:54.996Z,-8.13
2022-11-05T02:17:54.958Z,-8.16
2022-11-05T02:18:54.941Z,-8.18
2022-11-05T02:19:54.957Z,-8.21
2022-11-05T02:20:59.800Z,-8.23
2022-11-05T02:21:59.908Z,-8.24
2022-11-05T02:22:59.905Z,-8.29
2022-11-05T02:23:59.887Z,-8.31
2022-11-05T02:24:59.836Z,-8.33
2022-11-05T02:25:59.850Z,-8.35
2022-11-05T02:26:59.830Z,-8.34
2022-11-05T02:27:59.832Z,-8.27
2022-11-05T02:28:59.834Z,-8.26
2022-11-05T02:29:59.850Z,-8.24
2022-11-05T02:30:59.763Z,-8.24
2022-11-05T02:31:59.773Z,-8.24
2022-11-05T02:32:59.740Z,-8.22
2022-11-05T02:33:59.731Z,-8.22
2022-11-05T02:34:59.724Z,-8.20
2022-11-05T02:35:59.687Z,-8.21
2022-11-05T02:36:59.710Z,-8.19
2022-11-05T02:37:59.675Z,-8.20
2022-11-05T02:38:59.617Z,-8.20
2022-11-05T02:39:59.606Z,-8.20
2022-11-05T02:40:59.603Z,-8.15
2022-11-05T02:42:05.314Z,-8.16
2022-11-05T02:43:04.563Z,-8.14
2022-11-05T02:44:04.546Z,-8.13
2022-11-05T02:45:04.539Z,-8.13
2022-11-05T02:46:04.501Z,-8.14
2022-11-05T02:47:04.535Z,-8.11
2022-11-05T02:48:04.473Z,-8.13
2022-11-05T02:49:04.466Z,-8.15
2022-11-05T02:50:04.439Z,-8.13
2022-11-05T02:51:04.475Z,-8.16
2022-11-05T02:52:04.387Z,-8.16
2022-11-05T02:53:04.417Z,-8.18
2022-11-05T02:54:04.330Z,-8.22
2022-11-05T02:55:04.357Z,-8.25
2022-11-05T02:56:04.274Z,-8.27
2022-11-05T02:57:04.282Z,-8.31
2022-11-05T02:58:04.235Z,-8.34
2022-11-05T02:59:04.251Z,-8.35
2022-11-05T03:00:04.195Z,-8.34
2022-11-05T03:01:04.195Z,-8.33
2022-11-05T03:02:04.317Z,-8.33
2022-11-05T03:03:04.214Z,-8.35
2022-11-05T03:04:04.090Z,-8.35
2022-11-05T03:05:04.114Z,-8.35
2022-11-05T03:06:04.048Z,-8.34
2022-11-05T03:07:04.042Z,-8.34
2022-11-05T03:08:03.993Z,-8.28
2022-11-05T03:09:03.995Z,-8.20
2022-11-05T03:10:03.964Z,-8.15
2022-11-05T03:11:03.975Z,-8.09
2022-11-05T03:12:03.921Z,-8.09
2022-11-05T03:13:03.939Z,-8.07
2022-11-05T03:14:03.877Z,-8.05
2022-11-05T03:15:03.907Z,-8.05
2022-11-05T03:16:03.849Z,-8.01
2022-11-05T03:17:03.852Z,-7.92
2022-11-05T03:18:03.811Z,-7.87
2022-11-05T03:19:03.812Z,-7.82
2022-11-05T03:20:03.775Z,-7.80
2022-11-05T03:21:04.194Z,-7.78
2022-11-05T03:22:03.786Z,-7.83
2022-11-05T03:23:03.756Z,-7.82
2022-11-05T03:24:03.732Z,-7.76
2022-11-05T03:25:03.707Z,-7.68
2022-11-05T03:26:03.687Z,-7.61
2022-11-05T03:27:03.684Z,-7.59
2022-11-05T03:28:03.672Z,-7.56
2022-11-05T03:29:03.663Z,-7.56
2022-11-05T03:30:03.601Z,-7.55
2022-11-05T03:31:03.593Z,-7.54
2022-11-05T03:32:03.551Z,-7.54
2022-11-05T03:33:03.557Z,-7.53
2022-11-05T03:34:03.535Z,-7.51
2022-11-05T03:35:03.509Z,-7.47
2022-11-05T03:36:03.437Z,-7.47
2022-11-05T03:37:03.439Z,-7.48
2022-11-05T03:38:03.382Z,-7.39
2022-11-05T03:39:03.397Z,-7.26
2022-11-05T03:40:03.323Z,-7.27
2022-11-05T03:41:03.291Z,-7.22
2022-11-05T03:42:03.254Z,-7.21
2022-11-05T03:43:03.234Z,-7.25
2022-11-05T03:44:03.217Z,-7.27
2022-11-05T03:45:03.186Z,-7.26
2022-11-05T03:46:03.166Z,-7.27
2022-11-05T03:47:03.122Z,-7.31
2022-11-05T03:48:03.065Z,-7.32
2022-11-05T03:49:03.138Z,-7.31
2022-11-05T03:50:03.039Z,-7.30
2022-11-05T03:51:03.006Z,-7.33
2022-11-05T03:52:02.972Z,-7.34
2022-11-05T03:53:02.944Z,-7.36
2022-11-05T03:54:02.896Z,-7.39
2022-11-05T03:55:02.902Z,-7.38
2022-11-05T03:56:02.860Z,-7.36
2022-11-05T03:57:02.909Z,-7.37
2022-11-05T03:58:02.823Z,-7.39
2022-11-05T03:59:02.806Z,-7.36
2022-11-05T04:00:02.768Z,-7.39
2022-11-05T04:01:02.748Z,-7.38
2022-11-05T04:02:02.863Z,-7.41
2022-11-05T04:03:02.735Z,-7.42
2022-11-05T04:04:02.651Z,-7.48
2022-11-05T04:05:02.636Z,-7.44
2022-11-05T04:06:02.576Z,-7.48
2022-11-05T04:07:02.574Z,-7.52
2022-11-05T04:08:02.567Z,-7.50
2022-11-05T04:09:02.530Z,-7.52
2022-11-05T04:10:02.565Z,-7.55
2022-11-05T04:12:07.333Z,-7.64
2022-11-05T04:13:07.607Z,-7.65
2022-11-05T04:14:07.360Z,-7.69
2022-11-05T04:15:07.356Z,-7.71
2022-11-05T04:16:07.291Z,-7.71
2022-11-05T04:17:07.304Z,-7.76
2022-11-05T04:18:07.258Z,-7.76
2022-11-05T04:19:07.215Z,-7.79
2022-11-05T04:20:07.183Z,-7.72
2022-11-05T04:21:07.347Z,-7.72
2022-11-05T04:22:07.132Z,-7.71
2022-11-05T04:23:07.195Z,-7.74
2022-11-05T04:24:07.058Z,-7.74
2022-11-05T04:25:07.045Z,-7.75
2022-11-05T04:26:06.989Z,-7.74
2022-11-05T04:27:07.012Z,-7.76
2022-11-05T04:28:06.988Z,-7.80
2022-11-05T04:29:07.962Z,-7.82
2022-11-05T04:30:06.892Z,-7.87
2022-11-05T04:31:06.872Z,-7.90
2022-11-05T04:32:06.815Z,-7.96
2022-11-05T04:33:06.830Z,-8.04
2022-11-05T04:34:06.740Z,-8.08
2022-11-05T04:35:06.735Z,-8.10
2022-11-05T04:36:06.702Z,-8.12
2022-11-05T04:37:06.694Z,-8.12
2022-11-05T04:38:06.644Z,-8.14
2022-11-05T04:39:06.652Z,-8.15
2022-11-05T04:40:06.604Z,-8.13
2022-11-05T04:41:06.576Z,-8.18
2022-11-05T04:42:06.519Z,-8.19
2022-11-05T04:43:12.006Z,-8.23
2022-11-05T04:44:06.457Z,-8.25
2022-11-05T04:45:06.463Z,-8.29
2022-11-05T04:46:06.401Z,-8.28
2022-11-05T04:47:06.381Z,-8.30
2022-11-05T04:48:06.327Z,-8.31
2022-11-05T04:49:06.336Z,-8.35
2022-11-05T04:50:06.282Z,-8.36
2022-11-05T04:51:06.273Z,-8.36
2022-11-05T04:52:06.202Z,-8.35
2022-11-05T04:53:06.189Z,-8.39
2022-11-05T04:54:06.153Z,-8.42
2022-11-05T04:55:06.129Z,-8.42
2022-11-05T04:56:06.092Z,-8.43
2022-11-05T04:57:06.101Z,-8.42
2022-11-05T04:58:06.027Z,-8.41
2022-11-05T04:59:06.043Z,-8.37
2022-11-05T05:00:05.993Z,-8.33
2022-11-05T05:01:06.070Z,-8.21
2022-11-05T05:02:05.972Z,-8.16
2022-11-05T05:03:05.928Z,-8.12
2022-11-05T05:04:05.854Z,-8.07
2022-11-05T05:05:05.847Z,-8.00
2022-11-05T05:06:05.790Z,-7.95
2022-11-05T05:07:05.774Z,-7.90
2022-11-05T05:08:05.721Z,-7.91
2022-11-05T05:09:05.744Z,-7.90
2022-11-05T05:10:05.671Z,-7.93
2022-11-05T05:11:05.665Z,-7.94
2022-11-05T05:12:05.632Z,-7.92
2022-11-05T05:13:05.597Z,-7.90
2022-11-05T05:14:05.565Z,-7.91
2022-11-05T05:15:05.576Z,-7.93
2022-11-05T05:16:05.524Z,-7.90
2022-11-05T05:17:05.485Z,-7.87
2022-11-05T05:18:05.419Z,-7.89
2022-11-05T05:19:05.393Z,-7.92
2022-11-05T05:20:05.335Z,-7.94
2022-11-05T05:21:05.334Z,-7.95
2022-11-05T05:22:05.272Z,-7.92
2022-11-05T05:23:05.274Z,-7.91
2022-11-05T05:24:05.195Z,-7.76
2022-11-05T05:25:05.154Z,-7.74
2022-11-05T05:26:05.090Z,-7.62
2022-11-05T05:27:05.093Z,-7.62
2022-11-05T05:28:05.011Z,-7.65
2022-11-05T05:29:05.004Z,-7.60
2022-11-05T05:30:04.937Z,-7.59
2022-11-05T05:31:04.927Z,-7.56
2022-11-05T05:32:04.875Z,-7.55
2022-11-05T05:33:04.864Z,-7.53
2022-11-05T05:34:04.843Z,-7.49
2022-11-05T05:35:04.792Z,-7.46
2022-11-05T05:36:09.997Z,-7.44
2022-11-05T05:37:08.611Z,-7.46
2022-11-05T05:38:08.694Z,-7.44
2022-11-05T05:39:08.609Z,-7.42
2022-11-05T05:40:08.596Z,-7.38
2022-11-05T05:41:08.534Z,-7.38
2022-11-05T05:42:08.521Z,-7.40
2022-11-05T05:43:09.222Z,-7.40
2022-11-05T05:44:08.483Z,-7.39
2022-11-05T05:45:08.411Z,-7.38
2022-11-05T05:46:08.387Z,-7.40
2022-11-05T05:47:08.326Z,-7.38
2022-11-05T05:50:02.204Z,-7.40
2022-11-05T05:51:02.197Z,-7.40
2022-11-05T05:52:02.166Z,-7.41
2022-11-05T05:53:02.111Z,-7.44
2022-11-05T05:54:02.111Z,-7.45
2022-11-05T05:55:02.072Z,-7.48
2022-11-05T05:56:02.052Z,-7.49
2022-11-05T05:57:01.977Z,-7.49
2022-11-05T05:58:01.953Z,-7.49
2022-11-05T05:59:01.890Z,-7.49
2022-11-05T06:00:01.948Z,-7.53
2022-11-05T06:01:01.817Z,-7.54
2022-11-05T06:02:02.054Z,-7.55
2022-11-05T06:03:01.892Z,-7.57
2022-11-05T06:04:01.732Z,-7.59
2022-11-05T06:05:01.703Z,-7.63
2022-11-05T06:06:01.715Z,-7.64
2022-11-05T06:07:01.637Z,-7.64
2022-11-05T06:08:02.006Z,-7.64
2022-11-05T06:09:06.483Z,-7.61
2022-11-05T06:10:06.555Z,-7.61
2022-11-05T06:11:06.601Z,-7.64
2022-11-05T06:12:06.481Z,-7.62
2022-11-05T06:13:06.451Z,-7.63
2022-11-05T06:14:06.405Z,-7.65
2022-11-05T06:15:06.333Z,-7.67
2022-11-05T06:16:12.221Z,-7.67
2022-11-05T06:17:12.303Z,-7.69
2022-11-05T06:18:12.233Z,-7.69
2022-11-05T06:19:12.187Z,-7.70
2022-11-05T06:20:12.127Z,-7.69
2022-11-05T06:21:12.101Z,-7.69
2022-11-05T06:22:12.026Z,-7.68
2022-11-05T06:23:12.406Z,-7.67
2022-11-05T06:24:11.961Z,-7.67
2022-11-05T06:25:11.907Z,-7.66
2022-11-05T06:26:11.835Z,-7.65
2022-11-05T06:27:11.854Z,-7.66
2022-11-05T06:28:11.746Z,-7.69
2022-11-05T06:29:11.733Z,-7.69
2022-11-05T06:30:11.702Z,-7.69
2022-11-05T06:31:11.654Z,-7.69
2022-11-05T06:32:11.583Z,-7.67
2022-11-05T06:33:11.752Z,-7.64
2022-11-05T06:34:11.488Z,-7.62
2022-11-05T06:35:11.475Z,-7.59
2022-11-05T06:36:11.447Z,-7.59
2022-11-05T06:37:11.391Z,-7.57
2022-11-05T06:38:11.347Z,-7.59
2022-11-05T06:39:11.302Z,-7.60
2022-11-05T06:40:11.249Z,-7.55
2022-11-05T06:41:11.229Z,-7.52
2022-11-05T06:42:18.364Z,-7.52
2022-11-05T06:43:11.380Z,-7.53
2022-11-05T06:44:11.109Z,-7.49
2022-11-05T06:45:11.122Z,-7.47
2022-11-05T06:46:11.056Z,-7.47
2022-11-05T06:48:14.922Z,-7.45
2022-11-05T06:49:14.935Z,-7.48
2022-11-05T06:50:14.877Z,-7.48
2022-11-05T06:51:14.816Z,-7.51
2022-11-05T06:52:14.772Z,-7.53
2022-11-05T06:53:14.746Z,-7.53
2022-11-05T06:54:14.722Z,-7.54
2022-11-05T06:55:14.706Z,-7.53
2022-11-05T06:56:14.646Z,-7.54
2022-11-05T06:57:14.644Z,-7.56
2022-11-05T06:58:14.567Z,-7.56
2022-11-05T06:59:14.569Z,-7.56
2022-11-05T07:00:14.526Z,-7.56
2022-11-05T07:01:14.527Z,-7.54
2022-11-05T07:02:14.523Z,-7.50
2022-11-05T07:03:15.015Z,-7.45
2022-11-05T07:05:19.241Z,-7.32
2022-11-05T07:06:19.305Z,-7.27
2022-11-05T07:07:19.227Z,-7.23
2022-11-05T07:08:19.246Z,-7.21
2022-11-05T07:09:19.182Z,-7.21
2022-11-05T07:10:19.123Z,-7.19
2022-11-05T07:11:19.070Z,-7.18
2022-11-05T07:12:19.033Z,-7.16
2022-11-05T07:14:23.846Z,-7.29
2022-11-05T07:15:23.895Z,-7.32
2022-11-05T07:16:23.872Z,-7.33
2022-11-05T07:17:23.846Z,-7.35
2022-11-05T07:18:23.788Z,-7.34
2022-11-05T07:19:23.789Z,-7.34
2022-11-05T07:20:23.719Z,-7.33
2022-11-05T07:21:23.716Z,-7.33
2022-11-05T07:22:23.679Z,-7.31
2022-11-05T07:23:23.657Z,-7.31
2022-11-05T07:24:23.613Z,-7.27
2022-11-05T07:25:23.607Z,-7.30
2022-11-05T07:26:23.539Z,-7.25
2022-11-05T07:27:23.518Z,-7.26
2022-11-05T07:28:23.591Z,-7.25
2022-11-05T07:29:23.882Z,-7.23
2022-11-05T07:30:23.452Z,-7.23
2022-11-05T07:31:23.403Z,-7.23
2022-11-05T07:32:23.357Z,-7.20
2022-11-05T07:33:23.343Z,-7.20
2022-11-05T07:34:23.318Z,-7.16
2022-11-05T07:35:23.285Z,-7.17
2022-11-05T07:36:23.241Z,-7.15
2022-11-05T07:37:23.226Z,-7.15
2022-11-05T07:38:23.184Z,-7.12
2022-11-05T07:39:23.174Z,-7.09
2022-11-05T07:40:23.240Z,-7.06
2022-11-05T07:41:23.148Z,-7.00
2022-11-05T07:42:23.082Z,-6.96
2022-11-05T07:43:23.051Z,-6.93
2022-11-05T07:44:23.147Z,-6.85
2022-11-05T07:45:23.001Z,-6.76
2022-11-05T07:46:22.987Z,-6.71
2022-11-05T07:47:22.924Z,-6.61
2022-11-05T07:48:22.855Z,-6.58
2022-11-05T07:49:22.859Z,-6.52
2022-11-05T07:50:23.243Z,-6.47
2022-11-05T07:51:22.816Z,-6.46
2022-11-05T07:52:22.922Z,-6.46
2022-11-05T07:53:22.747Z,-6.47
2022-11-05T07:54:22.675Z,-6.50
2022-11-05T07:55:22.700Z,-6.53
2022-11-05T07:56:22.645Z,-6.52
2022-11-05T07:57:22.639Z,-6.53
2022-11-05T07:58:22.589Z,-6.56
2022-11-05T07:59:22.554Z,-6.61
2022-11-05T08:00:22.537Z,-6.61
2022-11-05T08:01:22.711Z,-6.67
2022-11-05T08:02:22.739Z,-6.88
2022-11-05T08:03:22.667Z,-6.95
2022-11-05T08:04:22.411Z,-7.09
2022-11-05T08:05:22.364Z,-7.11
2022-11-05T08:06:22.321Z,-7.11
2022-11-05T08:07:22.306Z,-7.19
2022-11-05T08:08:22.245Z,-7.26
2022-11-05T08:09:22.226Z,-7.25
2022-11-05T08:10:22.211Z,-7.33
2022-11-05T08:11:22.565Z,-7.42
2022-11-05T08:12:22.130Z,-7.41
2022-11-05T08:13:22.104Z,-7.46
2022-11-05T08:14:22.071Z,-7.46
2022-11-05T08:15:22.033Z,-7.42
2022-11-05T08:16:22.057Z,-7.46
2022-11-05T08:17:21.997Z,-7.45
2022-11-05T08:18:21.934Z,-7.46
2022-11-05T08:19:21.930Z,-7.44
2022-11-05T08:20:21.886Z,-7.41
2022-11-05T08:21:21.870Z,-7.44
2022-11-05T08:22:21.929Z,-7.41
2022-11-05T08:23:21.800Z,-7.41
2022-11-05T08:24:21.756Z,-7.37
2022-11-05T08:25:21.785Z,-7.39
2022-11-05T08:26:21.701Z,-7.41
2022-11-05T08:27:21.727Z,-7.39
2022-11-05T08:28:21.701Z,-7.39
2022-11-05T08:29:21.650Z,-7.39
2022-11-05T08:30:21.629Z,-7.38
2022-11-05T08:31:21.602Z,-7.37
2022-11-05T08:32:21.565Z,-7.35
2022-11-05T08:33:21.610Z,-7.34
2022-11-05T08:34:21.549Z,-7.35
2022-11-05T08:35:21.534Z,-7.31
2022-11-05T08:36:21.552Z,-7.30
2022-11-05T08:37:21.490Z,-7.25
2022-11-05T08:38:21.448Z,-7.29
2022-11-05T08:39:21.427Z,-7.29
2022-11-05T08:40:21.493Z,-7.33
2022-11-05T08:41:21.404Z,-7.31
2022-11-05T08:42:21.355Z,-7.33
2022-11-05T08:43:27.229Z,-7.34
2022-11-05T08:44:27.308Z,-7.33
2022-11-05T08:45:27.459Z,-7.33
2022-11-05T08:46:27.300Z,-7.34
2022-11-05T08:47:27.242Z,-7.33
2022-11-05T08:48:27.250Z,-7.32
2022-11-05T08:49:27.202Z,-7.33
2022-11-05T08:50:27.213Z,-7.27
2022-11-05T08:51:27.431Z,-7.30
2022-11-05T08:52:27.145Z,-7.29
2022-11-05T08:53:27.176Z,-7.27
2022-11-05T08:54:27.111Z,-7.26
2022-11-05T08:55:27.063Z,-7.22
2022-11-05T08:56:27.072Z,-7.20
2022-11-05T08:57:27.175Z,-7.22
2022-11-05T08:58:27.010Z,-7.23
2022-11-05T08:59:26.969Z,-7.22
2022-11-05T09:00:26.969Z,-7.17
2022-11-05T09:01:27.055Z,-7.15
2022-11-05T09:02:27.017Z,-7.13
2022-11-05T09:03:26.900Z,-7.16
2022-11-05T09:04:26.872Z,-7.13
2022-11-05T09:05:26.845Z,-7.10
2022-11-05T09:06:26.833Z,-7.08
2022-11-05T09:07:26.898Z,-7.06
2022-11-05T09:08:26.817Z,-7.06
2022-11-05T09:09:26.763Z,-7.07
2022-11-05T09:10:26.766Z,-7.07
2022-11-05T09:11:49.712Z,-7.02
2022-11-05T09:12:27.083Z,-7.00
2022-11-05T09:13:27.173Z,-6.97
2022-11-05T09:14:26.632Z,-6.97
2022-11-05T09:15:26.599Z,-6.95
2022-11-05T09:16:26.580Z,-6.92
2022-11-05T09:17:26.516Z,-6.90
2022-11-05T09:18:26.511Z,-6.89
2022-11-05T09:19:26.489Z,-6.86
2022-11-05T09:20:26.473Z,-6.88
2022-11-05T09:21:26.438Z,-6.85
2022-11-05T09:22:26.411Z,-6.82
2022-11-05T09:23:26.378Z,-6.83
2022-11-05T09:24:30.302Z,-6.81
2022-11-05T09:25:30.360Z,-6.77
2022-11-05T09:26:30.349Z,-6.76
2022-11-05T09:27:30.284Z,-6.75
2022-11-05T09:28:30.263Z,-6.73
2022-11-05T09:29:30.276Z,-6.71
2022-11-05T09:30:30.239Z,-6.71
2022-11-05T09:31:30.198Z,-6.71
2022-11-05T09:32:30.175Z,-6.67
2022-11-05T09:33:35.089Z,-6.66
2022-11-05T09:34:35.546Z,-6.62
2022-11-05T09:35:35.112Z,-6.62
2022-11-05T09:36:35.100Z,-6.60
2022-11-05T09:37:35.152Z,-6.58
2022-11-05T09:38:35.059Z,-6.56
2022-11-05T09:39:35.172Z,-6.55
2022-11-05T09:40:35.031Z,-6.52
2022-11-05T09:41:35.009Z,-6.48
2022-11-05T09:42:39.896Z,-6.44
2022-11-05T09:43:39.973Z,-6.45
2022-11-05T09:44:39.914Z,-6.44
2022-11-05T09:45:39.925Z,-6.39
2022-11-05T09:46:39.887Z,-6.38
2022-11-05T09:47:39.860Z,-6.36
2022-11-05T09:48:39.842Z,-6.37
2022-11-05T09:49:39.857Z,-6.36
2022-11-05T09:50:39.765Z,-6.33
2022-11-05T09:51:43.665Z,-6.32
2022-11-05T09:52:43.742Z,-6.32
2022-11-05T09:53:43.711Z,-6.29
2022-11-05T09:54:43.714Z,-6.26
2022-11-05T09:55:43.683Z,-6.24
2022-11-05T09:56:43.657Z,-6.21
2022-11-05T09:57:43.611Z,-6.20
2022-11-05T09:58:43.687Z,-6.16
2022-11-05T09:59:43.759Z,-6.12
2022-11-05T10:00:43.683Z,-6.12
2022-11-05T10:01:43.702Z,-6.11
2022-11-05T10:02:43.579Z,-6.08
2022-11-05T10:03:43.467Z,-6.11
2022-11-05T10:04:43.459Z,-6.07
2022-11-05T10:05:43.579Z,-6.05
2022-11-05T10:06:43.419Z,-6.02
2022-11-05T10:07:43.398Z,-6.00
2022-11-05T10:08:43.389Z,-6.01
2022-11-05T10:09:43.353Z,-6.00
2022-11-05T10:10:43.391Z,-5.96
2022-11-05T10:11:43.358Z,-5.96
2022-11-05T10:14:37.232Z,-5.94
2022-11-05T10:15:37.249Z,-5.87
2022-11-05T10:16:37.247Z,-5.87
2022-11-05T10:17:39.173Z,-5.84
2022-11-05T10:18:37.205Z,-5.80
2022-11-05T10:19:37.151Z,-5.78
2022-11-05T10:20:37.137Z,-5.77
2022-11-05T10:22:04.254Z,-5.75
2022-11-05T10:22:37.080Z,-5.74
2022-11-05T10:23:37.068Z,-5.71
2022-11-05T10:24:37.056Z,-5.72
2022-11-05T10:25:37.012Z,-5.72
2022-11-05T10:26:36.997Z,-5.71
2022-11-05T10:27:36.959Z,-5.70
2022-11-05T10:28:36.993Z,-5.70
2022-11-05T10:29:36.934Z,-5.68
2022-11-05T10:30:36.932Z,-5.64
2022-11-05T10:31:36.893Z,-5.63
2022-11-05T10:32:37.020Z,-5.58
2022-11-05T10:33:36.856Z,-5.56
2022-11-05T10:34:37.280Z,-5.55
2022-11-05T10:35:36.824Z,-5.50
2022-11-05T10:36:36.823Z,-5.48
2022-11-05T10:37:40.650Z,-5.46
2022-11-05T10:38:36.776Z,-5.42
2022-11-05T10:39:36.738Z,-5.39
2022-11-05T10:40:36.783Z,-5.34
2022-11-05T10:41:36.735Z,-5.30
2022-11-05T10:42:37.839Z,-5.24
2022-11-05T10:43:37.680Z,-5.22
2022-11-05T10:44:42.601Z,-5.18
2022-11-05T10:45:42.730Z,-5.16
2022-11-05T10:46:42.644Z,-5.12
2022-11-05T10:47:42.667Z,-5.09
2022-11-05T10:48:44.167Z,-5.05
2022-11-05T10:49:42.628Z,-5.02
2022-11-05T10:50:42.591Z,-4.98
2022-11-05T10:51:42.617Z,-4.98
2022-11-05T10:52:42.598Z,-4.96
2022-11-05T10:53:42.543Z,-4.91
2022-11-05T10:54:42.503Z,-4.90
2022-11-05T10:55:42.508Z,-4.89
2022-11-05T10:56:42.488Z,-4.89
2022-11-05T10:57:42.487Z,-4.86
2022-11-05T10:58:42.442Z,-4.84
2022-11-05T10:59:42.418Z,-4.82
2022-11-05T11:00:42.493Z,-4.79
2022-11-05T11:01:42.534Z,-4.75
2022-11-05T11:02:42.368Z,-4.73
2022-11-05T11:03:42.523Z,-4.72
2022-11-05T11:04:42.337Z,-4.73
2022-11-05T11:05:42.354Z,-4.70
2022-11-05T11:06:42.333Z,-4.68
2022-11-05T11:07:42.334Z,-4.68
2022-11-05T11:08:42.319Z,-4.64
2022-11-05T11:09:42.354Z,-4.59
2022-11-05T11:10:42.275Z,-4.56
2022-11-05T11:11:42.291Z,-4.56
2022-11-05T11:12:42.270Z,-4.53
2022-11-05T11:13:42.264Z,-4.50
2022-11-05T11:14:42.272Z,-4.50
2022-11-05T11:15:42.285Z,-4.46
2022-11-05T11:16:42.222Z,-4.46
2022-11-05T11:17:42.219Z,-4.43
2022-11-05T11:18:42.201Z,-4.41
2022-11-05T11:19:42.192Z,-4.38
2022-11-05T11:20:42.162Z,-4.37
2022-11-05T11:21:42.340Z,-4.32
2022-11-05T11:22:42.144Z,-4.32
2022-11-05T11:23:42.163Z,-4.28
2022-11-05T11:24:42.400Z,-4.28
2022-11-05T11:25:47.134Z,-4.27
2022-11-05T11:26:47.146Z,-4.28
2022-11-05T11:27:47.106Z,-4.27
2022-11-05T11:28:47.123Z,-4.26
2022-11-05T11:29:49.640Z,-4.27
2022-11-05T11:30:47.106Z,-4.26
2022-11-05T11:31:47.058Z,-4.28
2022-11-05T11:32:47.094Z,-4.27
2022-11-05T11:33:47.047Z,-4.25
2022-11-05T11:34:47.090Z,-4.23
2022-11-05T11:35:47.035Z,-4.22
2022-11-05T11:36:47.064Z,-4.20
2022-11-05T11:37:47.439Z,-4.22
2022-11-05T11:38:47.118Z,-4.19
2022-11-05T11:40:51.971Z,-4.16
2022-11-05T11:41:52.085Z,-4.17
2022-11-05T11:42:52.045Z,-4.16
2022-11-05T11:43:52.186Z,-4.16
2022-11-05T11:44:52.082Z,-4.17
2022-11-05T11:45:52.101Z,-4.17
2022-11-05T11:46:52.083Z,-4.21
2022-11-05T11:47:57.950Z,-4.22
2022-11-05T11:48:58.078Z,-4.20
2022-11-05T11:49:58.056Z,-4.23
2022-11-05T11:51:02.994Z,-4.22
2022-11-05T11:52:03.087Z,-4.23
2022-11-05T11:53:03.062Z,-4.21
2022-11-05T11:54:08.059Z,-4.20
2022-11-05T11:55:08.167Z,-4.19
2022-11-05T11:56:08.074Z,-4.22
2022-11-05T11:57:12.756Z,-4.22
2022-11-05T11:58:08.097Z,-4.21
2022-11-05T11:59:08.161Z,-4.16
2022-11-05T12:00:11.701Z,-4.19
2022-11-05T12:01:08.115Z,-4.21
2022-11-05T12:02:08.241Z,-4.21
2022-11-05T12:03:08.199Z,-4.20
2022-11-05T12:04:08.098Z,-4.17
2022-11-05T12:05:08.227Z,-4.16
2022-11-05T12:06:08.118Z,-4.20
2022-11-05T12:07:08.117Z,-4.22
2022-11-05T12:08:08.112Z,-4.22
2022-11-05T12:09:08.118Z,-4.19
2022-11-05T12:10:08.101Z,-4.17
2022-11-05T12:11:08.260Z,-4.15
2022-11-05T12:12:08.131Z,-4.14
2022-11-05T12:13:08.332Z,-4.13
2022-11-05T12:14:08.099Z,-4.08
2022-11-05T12:15:08.118Z,-4.07
2022-11-05T12:16:08.114Z,-4.06
2022-11-05T12:17:08.249Z,-4.00
2022-11-05T12:18:08.128Z,-4.00
2022-11-05T12:19:08.145Z,-4.01
2022-11-05T12:20:08.128Z,-4.00
2022-11-05T12:21:08.150Z,-3.98
2022-11-05T12:22:08.139Z,-3.99
2022-11-05T12:23:08.524Z,-3.99
2022-11-05T12:24:08.127Z,-4.01
2022-11-05T12:25:08.183Z,-4.02
2022-11-05T12:26:08.105Z,-3.99
2022-11-05T12:27:08.132Z,-4.01
2022-11-05T12:28:08.153Z,-4.06
2022-11-05T12:29:19.202Z,-4.11
2022-11-05T12:30:08.108Z,-4.12
2022-11-05T12:31:08.116Z,-4.14
2022-11-05T12:32:08.114Z,-4.14
2022-11-05T12:33:08.247Z,-4.16
2022-11-05T12:34:08.087Z,-4.16
2022-11-05T12:35:08.200Z,-4.15
2022-11-05T12:36:08.077Z,-4.15
2022-11-05T12:37:08.108Z,-4.14
2022-11-05T12:38:08.076Z,-4.15
2022-11-05T12:39:08.237Z,-4.12
2022-11-05T12:40:08.494Z,-4.12
2022-11-05T12:41:08.087Z,-4.11
2022-11-05T12:42:08.048Z,-4.09
2022-11-05T12:43:11.769Z,-4.10
2022-11-05T12:44:08.039Z,-4.10
2022-11-05T12:45:08.045Z,-4.11
2022-11-05T12:46:08.198Z,-4.07
2022-11-05T12:47:11.927Z,-4.07
2022-11-05T12:48:12.032Z,-4.04
2022-11-05T12:49:12.052Z,-4.04
2022-11-05T12:50:12.035Z,-4.04
2022-11-05T12:51:12.038Z,-4.01
2022-11-05T12:52:12.025Z,-4.00
2022-11-05T12:53:12.224Z,-3.99
2022-11-05T12:54:12.046Z,-3.97
2022-11-05T12:55:12.013Z,-3.98
2022-11-05T12:56:17.010Z,-4.00
2022-11-05T12:57:17.041Z,-4.01
2022-11-05T12:58:17.010Z,-4.00
2022-11-05T12:59:17.071Z,-3.97
2022-11-05T13:00:17.012Z,-3.97
2022-11-05T13:01:17.330Z,-3.94
2022-11-05T13:02:17.197Z,-3.92
2022-11-05T13:03:17.034Z,-3.93
2022-11-05T13:04:17.019Z,-3.89
2022-11-05T13:05:17.012Z,-3.86